createdAt,value
2023-04-15T00:01:07.147Z,98574.56
2023-04-15T00:03:33.760Z,98572.63
2023-04-15T00:06:00.605Z,98591.94
2023-04-15T00:08:27.452Z,98581.69
2023-04-15T00:10:53.894Z,98590.59
2023-04-15T00:13:20.379Z,98593.25
2023-04-15T00:15:46.904Z,98583.97
2023-04-15T00:18:13.424Z,98574.56
2023-04-15T00:20:40.054Z,98574.38
2023-04-15T00:23:06.665Z,98577.03
2023-04-15T00:25:33.209Z,98566.63
2023-04-15T00:27:59.726Z,98568.97
2023-04-15T00:30:26.165Z,98568.28
2023-04-15T00:32:52.928Z,98576.34
2023-04-15T00:35:19.592Z,98572.69
2023-04-15T00:37:46.455Z,98570.47
2023-04-15T00:40:13.737Z,98573.75
2023-04-15T00:42:40.944Z,98593.22
2023-04-15T00:45:08.116Z,98605.81
2023-04-15T00:47:36.288Z,98598.94
2023-04-15T00:50:02.948Z,98592.66
2023-04-15T00:52:29.489Z,98596.53
2023-04-15T00:54:56.232Z,98606.09
2023-04-15T00:57:23.157Z,98608.50
2023-04-15T00:59:50.810Z,98609.13
2023-04-15T01:02:17.608Z,98608.47
2023-04-15T01:04:44.287Z,98617.00
2023-04-15T01:07:11.029Z,98627.38
2023-04-15T01:09:37.940Z,98632.94
2023-04-15T01:12:04.925Z,98631.91
2023-04-15T01:14:31.970Z,98631.78
2023-04-15T01:16:58.463Z,98644.34
2023-04-15T01:19:25.149Z,98659.63
2023-04-15T01:21:51.657Z,98673.78
2023-04-15T01:24:19.294Z,98682.97
2023-04-15T01:26:46.085Z,98687.53
2023-04-15T01:29:12.979Z,98695.44
2023-04-15T01:31:39.648Z,98697.41
2023-04-15T01:34:06.133Z,98698.38
2023-04-15T01:36:32.648Z,98700.19
2023-04-15T01:38:59.365Z,98704.63
2023-04-15T01:41:29.340Z,98699.53
2023-04-15T01:43:55.847Z,98694.25
2023-04-15T01:46:23.509Z,98697.72
2023-04-15T01:48:50.389Z,98701.31
2023-04-15T01:51:16.853Z,98704.88
2023-04-15T01:53:43.621Z,98706.53
2023-04-15T01:56:10.135Z,98693.50
2023-04-15T01:58:36.838Z,98698.19
2023-04-15T02:01:03.562Z,98698.31
2023-04-15T02:03:30.631Z,98688.63
2023-04-15T02:05:57.356Z,98681.16
2023-04-15T02:08:24.191Z,98674.94
2023-04-15T02:10:50.955Z,98679.69
2023-04-15T02:13:17.694Z,98681.78
2023-04-15T02:15:50.808Z,98691.66
2023-04-15T02:18:17.346Z,98694.28
2023-04-15T02:20:44.263Z,98706.34
2023-04-15T02:23:10.852Z,98709.13
2023-04-15T02:25:37.840Z,98718.84
2023-04-15T02:28:05.463Z,98719.16
2023-04-15T02:30:32.882Z,98724.69
2023-04-15T02:33:00.513Z,98728.81
2023-04-15T02:35:27.265Z,98730.63
2023-04-15T02:37:53.793Z,98730.25
2023-04-15T02:40:20.437Z,98732.19
2023-04-15T02:42:47.111Z,98732.50
2023-04-15T02:45:13.738Z,98734.44
2023-04-15T02:47:40.267Z,98744.44
2023-04-15T02:50:13.277Z,98743.59
2023-04-15T02:52:40.758Z,98737.94
2023-04-15T02:55:07.694Z,98735.59
2023-04-15T02:57:34.159Z,98739.19
2023-04-15T03:00:00.720Z,98734.75
2023-04-15T03:02:27.256Z,98735.47
2023-04-15T03:04:54.886Z,98735.47
2023-04-15T03:07:21.425Z,98739.44
2023-04-15T03:09:47.855Z,98740.44
2023-04-15T03:12:14.432Z,98728.38
2023-04-15T03:14:40.948Z,98717.31
2023-04-15T03:17:07.479Z,98717.19
2023-04-15T03:19:34.082Z,98711.53
2023-04-15T03:22:00.487Z,98716.81
2023-04-15T03:24:26.989Z,98717.47
2023-04-15T03:26:53.629Z,98709.84
2023-04-15T03:29:19.951Z,98707.78
2023-04-15T03:31:46.493Z,98708.78
2023-04-15T03:34:13.040Z,98714.84
2023-04-15T03:36:39.647Z,98720.38
2023-04-15T03:39:06.101Z,98714.16
2023-04-15T03:41:32.515Z,98714.53
2023-04-15T03:43:58.982Z,98707.34
2023-04-15T03:46:25.777Z,98691.66
2023-04-15T03:48:52.496Z,98687.66
2023-04-15T03:51:18.906Z,98677.97
2023-04-15T03:53:45.364Z,98684.75
2023-04-15T03:56:11.738Z,98699.16
2023-04-15T03:58:38.467Z,98695.94
2023-04-15T04:01:04.962Z,98683.06
2023-04-15T04:03:31.553Z,98686.69
2023-04-15T04:05:58.098Z,98674.34
2023-04-15T04:08:24.991Z,98675.16
2023-04-15T04:10:51.389Z,98678.22
2023-04-15T04:13:17.815Z,98681.81
2023-04-15T04:15:44.660Z,98683.63
2023-04-15T04:18:12.759Z,98696.53
2023-04-15T04:20:39.237Z,98692.94
2023-04-15T04:23:05.650Z,98705.69
2023-04-15T04:25:32.111Z,98710.44
2023-04-15T04:27:59.161Z,98712.38
2023-04-15T04:30:27.027Z,98709.88
2023-04-15T04:32:53.752Z,98712.50
2023-04-15T04:35:20.309Z,98715.72
2023-04-15T04:37:46.790Z,98722.66
2023-04-15T04:40:13.511Z,98722.94
2023-04-15T04:42:40.324Z,98729.16
2023-04-15T04:45:07.368Z,98728.06
2023-04-15T04:47:33.888Z,98734.16
2023-04-15T04:50:00.663Z,98728.06
2023-04-15T04:52:27.049Z,98732.06
2023-04-15T04:54:53.543Z,98725.84
2023-04-15T04:57:20.270Z,98724.56
2023-04-15T04:59:46.923Z,98729.69
2023-04-15T05:02:13.505Z,98723.03
2023-04-15T05:04:40.166Z,98713.88
2023-04-15T05:07:06.805Z,98705.69
2023-04-15T05:09:33.365Z,98697.06
2023-04-15T05:11:59.843Z,98686.22
2023-04-15T05:14:26.905Z,98671.69
2023-04-15T05:16:53.525Z,98668.91
2023-04-15T05:19:20.110Z,98654.91
2023-04-15T05:21:46.608Z,98655.44
2023-04-15T05:24:13.121Z,98653.88
2023-04-15T05:26:39.645Z,98655.94
2023-04-15T05:29:06.316Z,98651.34
2023-04-15T05:31:32.980Z,98646.78
2023-04-15T05:33:59.592Z,98633.19
2023-04-15T05:36:26.336Z,98645.50
2023-04-15T05:38:53.086Z,98636.75
2023-04-15T05:41:20.032Z,98623.53
2023-04-15T05:43:46.888Z,98621.47
2023-04-15T05:46:13.409Z,98607.09
2023-04-15T05:48:39.874Z,98607.03
2023-04-15T05:51:06.548Z,98603.78
2023-04-15T05:53:33.489Z,98597.25
2023-04-15T05:56:00.080Z,98596.38
2023-04-15T05:58:26.851Z,98588.22
2023-04-15T06:00:53.775Z,98577.66
2023-04-15T06:03:21.109Z,98571.59
2023-04-15T06:05:47.634Z,98541.44
2023-04-15T06:08:14.029Z,98510.31
2023-04-15T06:10:40.704Z,98484.34
2023-04-15T06:13:07.814Z,98459.31
2023-04-15T06:15:34.542Z,98432.41
2023-04-15T06:18:01.015Z,98420.88
2023-04-15T06:20:27.446Z,98401.94
2023-04-15T06:22:54.167Z,98400.97
2023-04-15T06:25:20.589Z,98395.75
2023-04-15T06:27:47.079Z,98388.00
2023-04-15T06:30:13.679Z,98366.41
2023-04-15T06:32:40.548Z,98351.06
2023-04-15T06:35:07.211Z,98344.66
2023-04-15T06:37:34.105Z,98317.91
2023-04-15T06:40:00.836Z,98301.00
2023-04-15T06:42:27.546Z,98288.13
2023-04-15T06:44:54.037Z,98302.34
2023-04-15T06:47:20.975Z,98319.75
2023-04-15T06:49:47.717Z,98292.47
2023-04-15T06:52:14.690Z,98280.56
2023-04-15T06:54:41.485Z,98257.31
2023-04-15T06:57:08.006Z,98257.31
2023-04-15T06:59:34.735Z,98257.84
2023-04-15T07:02:01.744Z,98256.69
2023-04-15T07:04:28.376Z,98274.31
2023-04-15T07:06:55.195Z,98259.69
2023-04-15T07:09:23.454Z,98223.28
2023-04-15T07:11:49.987Z,98223.03
2023-04-15T07:14:17.955Z,98209.91
2023-04-15T07:16:44.527Z,98217.50
2023-04-15T07:19:11.794Z,98203.28
2023-04-15T07:21:39.961Z,98171.63
2023-04-15T07:24:07.723Z,98170.22
2023-04-15T07:26:34.863Z,98158.97
2023-04-15T07:29:01.648Z,98144.56
2023-04-15T07:31:28.413Z,98132.31
2023-04-15T07:33:54.895Z,98124.28
2023-04-15T07:36:21.286Z,98110.91
2023-04-15T07:38:47.972Z,98068.81
2023-04-15T07:41:14.593Z,98055.22
2023-04-15T07:43:41.192Z,98015.28
2023-04-15T07:46:07.880Z,98018.25
2023-04-15T07:48:35.561Z,98018.13
2023-04-15T07:51:03.740Z,97990.16
2023-04-15T07:53:30.283Z,97986.28
2023-04-15T07:55:56.680Z,97982.59
2023-04-15T07:58:23.494Z,97990.75
2023-04-15T08:00:49.961Z,97958.41
2023-04-15T08:03:16.708Z,97941.69
2023-04-15T08:05:43.151Z,97919.84
2023-04-15T08:08:09.565Z,97937.16
2023-04-15T08:10:36.335Z,97928.63
2023-04-15T08:13:02.917Z,97910.41
2023-04-15T08:15:29.328Z,97902.44
2023-04-15T08:17:55.720Z,97908.38
2023-04-15T08:20:22.455Z,97897.53
2023-04-15T08:22:51.142Z,97899.38
2023-04-15T08:25:18.829Z,97880.28
2023-04-15T08:27:45.907Z,97870.47
2023-04-15T08:30:12.734Z,97870.22
2023-04-15T08:32:39.276Z,97867.91
2023-04-15T08:35:06.422Z,97849.38
2023-04-15T08:37:33.815Z,97853.44
2023-04-15T08:40:00.188Z,97840.03
2023-04-15T08:42:37.643Z,97833.47
2023-04-15T08:45:05.533Z,97831.03
2023-04-15T08:47:33.492Z,97829.91
2023-04-15T08:50:04.232Z,97817.59
2023-04-15T08:52:31.834Z,97818.75
2023-04-15T08:55:00.375Z,97819.47
2023-04-15T08:57:28.509Z,97815.31
2023-04-15T08:59:58.336Z,97815.53
2023-04-15T09:02:26.858Z,97814.47
2023-04-15T09:04:54.200Z,97810.84
2023-04-15T09:07:20.769Z,97808.25
2023-04-15T09:09:48.596Z,97815.31
2023-04-15T09:12:15.398Z,97812.59
2023-04-15T09:14:42.417Z,97804.38
2023-04-15T09:17:11.030Z,97813.66
2023-04-15T09:19:40.458Z,97815.69
2023-04-15T09:22:07.169Z,97812.09
2023-04-15T09:24:36.811Z,97808.75
2023-04-15T09:27:11.157Z,97809.44
2023-04-15T09:29:41.665Z,97813.00
2023-04-15T09:32:15.301Z,97808.34
2023-04-15T09:34:41.712Z,97815.78
2023-04-15T09:37:08.599Z,97808.31
2023-04-15T09:39:52.511Z,97804.78
2023-04-15T09:42:19.912Z,97801.78
2023-04-15T09:44:47.036Z,97810.72
2023-04-15T09:47:32.808Z,97819.22
2023-04-15T09:50:00.564Z,97825.47
2023-04-15T09:52:27.584Z,97823.84
2023-04-15T09:54:55.161Z,97822.06
2023-04-15T09:57:21.581Z,97818.84
2023-04-15T09:59:48.385Z,97822.66
2023-04-15T10:02:28.999Z,97819.91
2023-04-15T10:04:56.095Z,97814.28
2023-04-15T10:07:22.684Z,97818.72
2023-04-15T10:09:49.697Z,97820.81
2023-04-15T10:12:19.741Z,97817.56
2023-04-15T10:14:57.568Z,97814.72
2023-04-15T10:17:31.125Z,97816.63
2023-04-15T10:20:00.666Z,97817.69
2023-04-15T10:22:28.594Z,97823.19
2023-04-15T10:24:56.828Z,97824.84
2023-04-15T10:27:23.822Z,97824.56
2023-04-15T10:29:55.140Z,97830.25
2023-04-15T10:32:24.329Z,97841.34
2023-04-15T10:34:54.193Z,97838.66
2023-04-15T10:37:23.022Z,97839.25
2023-04-15T10:39:49.617Z,97841.94
2023-04-15T10:42:18.311Z,97840.47
2023-04-15T10:44:53.178Z,97845.66
2023-04-15T10:47:27.396Z,97846.03
2023-04-15T10:49:59.584Z,97843.63
2023-04-15T10:52:28.512Z,97845.41
2023-04-15T10:55:13.584Z,97842.13
2023-04-15T10:57:41.935Z,97844.47
2023-04-15T11:00:08.370Z,97840.16
2023-04-15T11:03:05.698Z,97846.16
2023-04-15T11:05:41.780Z,97856.91
2023-04-15T11:08:09.100Z,97845.28
2023-04-15T11:10:35.519Z,97844.34
2023-04-15T11:13:14.939Z,97844.72
2023-04-15T11:15:43.078Z,97846.34
2023-04-15T11:18:13.681Z,97851.69
2023-04-15T11:20:44.100Z,97846.22
2023-04-15T11:23:14.462Z,97847.91
2023-04-15T11:25:43.539Z,97845.47
2023-04-15T11:28:11.808Z,97842.78
2023-04-15T11:30:41.485Z,97851.81
2023-04-15T11:33:12.368Z,97857.59
2023-04-15T11:35:42.278Z,97854.66
2023-04-15T11:38:11.408Z,97853.09
2023-04-15T11:40:39.211Z,97856.66
2023-04-15T11:43:07.527Z,97858.16
2023-04-15T11:45:35.547Z,97866.91
2023-04-15T11:48:10.854Z,97872.38
2023-04-15T11:50:38.932Z,97865.56
2023-04-15T11:53:08.682Z,97859.53
2023-04-15T11:55:46.264Z,97875.19
2023-04-15T11:58:16.780Z,97876.00
2023-04-15T12:01:01.885Z,97878.44
2023-04-15T12:03:39.824Z,97884.44
2023-04-15T12:06:25.210Z,97878.53
2023-04-15T12:09:07.791Z,97890.34
2023-04-15T12:11:36.112Z,97876.44
2023-04-15T12:14:11.165Z,97889.28
2023-04-15T12:16:59.523Z,97892.72
2023-04-15T12:19:27.617Z,97900.50
2023-04-15T12:22:02.221Z,97897.00
2023-04-15T12:24:32.529Z,97887.59
2023-04-15T12:27:03.914Z,97888.19
2023-04-15T12:29:31.445Z,97899.84
2023-04-15T12:32:09.741Z,97905.78
2023-04-15T12:34:41.338Z,97917.75
2023-04-15T12:37:10.550Z,97924.34
2023-04-15T12:39:39.335Z,97923.59
2023-04-15T12:42:07.015Z,97942.69
2023-04-15T12:44:34.204Z,97942.44
2023-04-15T12:47:00.981Z,97939.56
2023-04-15T12:49:28.457Z,97939.81
2023-04-15T12:51:56.527Z,97956.69
2023-04-15T12:54:23.423Z,97974.16
2023-04-15T12:56:51.258Z,97987.97
2023-04-15T12:59:17.902Z,97999.72
2023-04-15T13:01:45.788Z,98018.72
2023-04-15T13:04:12.324Z,98022.91
2023-04-15T13:06:38.999Z,98037.59
2023-04-15T13:09:06.075Z,98047.53
2023-04-15T13:11:33.632Z,98075.38
2023-04-15T13:14:05.894Z,98117.91
2023-04-15T13:16:33.927Z,98129.44
2023-04-15T13:19:02.318Z,98179.06
2023-04-15T13:21:28.964Z,98108.72
2023-04-15T13:23:55.671Z,98135.75
2023-04-15T13:26:23.133Z,98128.78
2023-04-15T13:28:49.519Z,98177.59
2023-04-15T13:31:16.155Z,98154.56
2023-04-15T13:33:42.701Z,98115.13
2023-04-15T13:36:09.230Z,98115.25
2023-04-15T13:38:35.563Z,98109.06
2023-04-15T13:41:02.252Z,98083.94
2023-04-15T13:43:28.703Z,98094.38
2023-04-15T13:45:56.581Z,98063.91
2023-04-15T13:48:23.145Z,98041.53
2023-04-15T13:50:50.062Z,98041.13
2023-04-15T13:53:16.429Z,98048.69
2023-04-15T13:55:44.689Z,98048.06
2023-04-15T13:58:11.420Z,98041.16
2023-04-15T14:00:38.156Z,98053.97
2023-04-15T14:03:04.749Z,98048.81
2023-04-15T14:05:32.330Z,98045.28
2023-04-15T14:07:59.905Z,98055.28
2023-04-15T14:10:26.372Z,98053.47
2023-04-15T14:12:52.897Z,98050.19
2023-04-15T14:15:19.373Z,98055.31
2023-04-15T14:17:46.077Z,98057.94
2023-04-15T14:20:14.520Z,98067.75
2023-04-15T14:22:42.865Z,98063.38
2023-04-15T14:25:11.720Z,98065.56
2023-04-15T14:27:44.166Z,98065.06
2023-04-15T14:30:11.713Z,98065.66
2023-04-15T14:32:38.265Z,98076.69
2023-04-15T14:35:07.509Z,98067.16
2023-04-15T14:37:33.879Z,98084.16
2023-04-15T14:40:00.616Z,98089.72
2023-04-15T14:42:33.677Z,98093.59
2023-04-15T14:45:00.018Z,98099.31
2023-04-15T14:47:26.628Z,98106.06
2023-04-15T14:49:53.451Z,98105.00
2023-04-15T14:52:20.613Z,98103.41
2023-04-15T14:54:49.900Z,98103.19
2023-04-15T14:57:19.834Z,98113.31
2023-04-15T14:59:46.344Z,98110.22
2023-04-15T15:02:31.658Z,98107.09
2023-04-15T15:05:03.850Z,98112.44
2023-04-15T15:07:30.736Z,98113.41
2023-04-15T15:09:57.286Z,98117.44
2023-04-15T15:12:25.578Z,98117.66
2023-04-15T15:14:56.555Z,98125.34
2023-04-15T15:17:23.558Z,98135.91
2023-04-15T15:19:50.432Z,98130.59
2023-04-15T15:22:20.867Z,98134.53
2023-04-15T15:24:48.047Z,98135.78
2023-04-15T15:27:16.083Z,98145.28
2023-04-15T15:29:43.751Z,98144.25
2023-04-15T15:32:10.485Z,98137.91
2023-04-15T15:34:37.009Z,98152.28
2023-04-15T15:37:03.679Z,98141.03
2023-04-15T15:39:32.757Z,98150.28
2023-04-15T15:41:59.184Z,98165.56
2023-04-15T15:44:25.678Z,98159.59
2023-04-15T15:46:52.454Z,98169.03
2023-04-15T15:49:19.285Z,98163.28
2023-04-15T15:51:46.040Z,98178.69
2023-04-15T15:54:15.577Z,98176.06
2023-04-15T15:56:41.963Z,98180.31
2023-04-15T15:59:11.204Z,98181.56
2023-04-15T16:01:38.024Z,98184.66
2023-04-15T16:04:04.908Z,98189.38
2023-04-15T16:06:32.745Z,98201.13
2023-04-15T16:09:00.723Z,98213.63
2023-04-15T16:11:27.634Z,98208.75
2023-04-15T16:13:54.056Z,98223.91
2023-04-15T16:16:20.543Z,98233.78
2023-04-15T16:18:47.873Z,98238.94
2023-04-15T16:21:17.095Z,98257.81
2023-04-15T16:23:43.651Z,98273.63
2023-04-15T16:26:10.236Z,98279.34
2023-04-15T16:28:37.541Z,98322.41
2023-04-15T16:31:04.171Z,98366.53
2023-04-15T16:33:30.716Z,98407.06
2023-04-15T16:35:58.101Z,98419.72
2023-04-15T16:38:25.624Z,98477.47
2023-04-15T16:40:52.070Z,98543.00
2023-04-15T16:43:19.343Z,98610.91
2023-04-15T16:45:46.226Z,98668.09
2023-04-15T16:48:13.080Z,98715.94
2023-04-15T16:50:39.678Z,98743.66
2023-04-15T16:53:06.640Z,98775.97
2023-04-15T16:55:33.748Z,98806.28
2023-04-15T16:58:02.941Z,98860.34
2023-04-15T17:00:31.616Z,98874.03
2023-04-15T17:03:01.706Z,98890.38
2023-04-15T17:05:29.082Z,98905.44
2023-04-15T17:07:55.502Z,98939.38
2023-04-15T17:10:23.628Z,98982.31
2023-04-15T17:12:50.985Z,99014.38
2023-04-15T17:15:18.899Z,99066.25
2023-04-15T17:17:45.688Z,99110.19
2023-04-15T17:20:12.358Z,99146.84
2023-04-15T17:22:39.091Z,99183.59
2023-04-15T17:25:08.851Z,99232.97
2023-04-15T17:27:35.977Z,99275.88
2023-04-15T17:30:02.593Z,99297.16
2023-04-15T17:32:29.435Z,99310.94
2023-04-15T17:34:56.293Z,99319.44
2023-04-15T17:37:22.768Z,99338.88
2023-04-15T17:39:49.652Z,99355.00
2023-04-15T17:42:16.145Z,99362.13
2023-04-15T17:44:42.849Z,99363.66
2023-04-15T17:47:09.698Z,99386.75
2023-04-15T17:49:36.102Z,99406.84
2023-04-15T17:52:02.750Z,99421.97
2023-04-15T17:54:29.454Z,99420.66
2023-04-15T17:57:00.568Z,99427.28
2023-04-15T17:59:28.122Z,99433.13
2023-04-15T18:01:55.710Z,99425.47
2023-04-15T18:04:25.835Z,99429.09
2023-04-15T18:06:54.281Z,99427.75
2023-04-15T18:09:21.281Z,99424.44
2023-04-15T18:11:47.840Z,99431.44
2023-04-15T18:14:27.058Z,99448.34
2023-04-15T18:16:57.504Z,99443.69
2023-04-15T18:19:23.950Z,99448.34
2023-04-15T18:21:50.635Z,99445.00
2023-04-15T18:24:17.328Z,99446.16
2023-04-15T18:26:43.818Z,99456.97
2023-04-15T18:29:11.009Z,99467.25
2023-04-15T18:31:37.858Z,99486.16
2023-04-15T18:34:07.053Z,99490.47
2023-04-15T18:36:34.204Z,99514.41
2023-04-15T18:39:00.817Z,99519.88
2023-04-15T18:41:27.717Z,99547.28
2023-04-15T18:43:54.341Z,99567.88
2023-04-15T18:46:20.823Z,99585.66
2023-04-15T18:48:48.941Z,99614.22
2023-04-15T18:51:18.251Z,99625.00
2023-04-15T18:53:44.751Z,99633.13
2023-04-15T18:56:11.298Z,99651.25
2023-04-15T18:59:25.302Z,98893.41
2023-04-15T19:01:24.285Z,98872.50
2023-04-15T19:03:50.749Z,98848.09
2023-04-15T19:06:17.271Z,98844.63
2023-04-15T19:08:45.846Z,98837.84
2023-04-15T19:11:12.182Z,98831.50
2023-04-15T19:13:39.029Z,98828.22
2023-04-15T19:16:05.686Z,98824.06
2023-04-15T19:18:35.395Z,98823.41
2023-04-15T19:21:04.280Z,98824.06
2023-04-15T19:23:31.978Z,98817.09
2023-04-15T19:25:58.450Z,98820.41
2023-04-15T19:28:24.829Z,98824.69
2023-04-15T19:30:51.329Z,98817.94
2023-04-15T19:33:18.148Z,98817.28
2023-04-15T19:35:45.032Z,98819.94
2023-04-15T19:38:11.784Z,98822.94
2023-04-15T19:40:38.421Z,98819.25
2023-04-15T19:43:05.140Z,98814.63
2023-04-15T19:45:31.849Z,98819.09
2023-04-15T19:48:00.509Z,98818.28
2023-04-15T19:50:26.989Z,98812.78
2023-04-15T19:52:54.158Z,98799.50
2023-04-15T19:55:23.560Z,98792.00
2023-04-15T19:57:50.263Z,98786.06
2023-04-15T20:00:17.563Z,98791.38
2023-04-15T20:02:44.027Z,98777.75
2023-04-15T20:05:10.555Z,98770.75
2023-04-15T20:07:37.803Z,98763.78
2023-04-15T20:10:12.342Z,98766.44
2023-04-15T20:12:50.349Z,98766.44
2023-04-15T20:15:19.361Z,98755.63
2023-04-15T20:17:46.316Z,98761.59
2023-04-15T20:20:13.006Z,98762.78
2023-04-15T20:22:39.400Z,98758.63
2023-04-15T20:25:06.469Z,98755.34
2023-04-15T20:27:33.998Z,98749.41
2023-04-15T20:30:01.145Z,98751.22
2023-04-15T20:32:27.644Z,98749.56
2023-04-15T20:34:54.113Z,98756.41
2023-04-15T20:37:20.796Z,98769.97
2023-04-15T20:39:47.515Z,98779.44
2023-04-15T20:42:14.050Z,98796.84
2023-04-15T20:44:40.808Z,98801.16
2023-04-15T20:47:08.016Z,98800.31
2023-04-15T20:49:37.001Z,98799.34
2023-04-15T20:52:08.269Z,98809.13
2023-04-15T20:54:35.523Z,98805.81
2023-04-15T20:57:03.027Z,98808.28
2023-04-15T20:59:30.115Z,98801.47
2023-04-15T21:01:57.036Z,98805.28
2023-04-15T21:04:23.627Z,98803.63
2023-04-15T21:06:50.329Z,98797.31
2023-04-15T21:09:17.048Z,98801.28
2023-04-15T21:12:00.536Z,98797.63
2023-04-15T21:14:28.484Z,98792.47
2023-04-15T21:16:55.285Z,98778.56
2023-04-15T21:19:22.135Z,98764.47
2023-04-15T21:21:49.881Z,98760.59
2023-04-15T21:24:19.577Z,98767.13
2023-04-15T21:26:46.121Z,98764.06
2023-04-15T21:29:13.376Z,98768.41
2023-04-15T21:32:03.469Z,98769.03
2023-04-15T21:34:29.895Z,98762.78
2023-04-15T21:36:56.680Z,98760.94
2023-04-15T21:39:23.421Z,98764.94
2023-04-15T21:41:50.093Z,98761.41
2023-04-15T21:44:16.705Z,98760.59
2023-04-15T21:46:46.064Z,98756.84
2023-04-15T21:49:12.722Z,98757.66
2023-04-15T21:51:40.148Z,98759.78
2023-04-15T21:54:06.676Z,98760.13
2023-04-15T21:56:33.109Z,98757.47
2023-04-15T21:58:59.613Z,98748.69
2023-04-15T22:01:26.642Z,98752.16
2023-04-15T22:03:53.435Z,98742.81
2023-04-15T22:06:20.375Z,98745.66
2023-04-15T22:08:55.994Z,98747.50
2023-04-15T22:11:23.210Z,98753.44
2023-04-15T22:13:50.667Z,98757.13
2023-04-15T22:16:19.900Z,98755.47
2023-04-15T22:18:46.584Z,98765.28
2023-04-15T22:21:14.256Z,98755.81
2023-04-15T22:23:40.665Z,98761.13
2023-04-15T22:26:07.487Z,98764.97
2023-04-15T22:28:34.022Z,98768.44
2023-04-15T22:31:00.547Z,98775.91
2023-04-15T22:33:27.037Z,98775.09
2023-04-15T22:36:00.988Z,98775.72
2023-04-15T22:38:28.680Z,98785.31
2023-04-15T22:40:55.162Z,98781.22
2023-04-15T22:43:22.025Z,98786.81
2023-04-15T22:45:56.220Z,98795.94
2023-04-15T22:48:23.781Z,98793.97
2023-04-15T22:50:50.650Z,98797.63
2023-04-15T22:53:18.265Z,98802.75
2023-04-15T22:55:48.822Z,98809.25
2023-04-15T22:58:17.523Z,98806.78
2023-04-15T23:00:44.705Z,98808.06
2023-04-15T23:03:11.241Z,98807.44
2023-04-15T23:05:37.987Z,98812.56
2023-04-15T23:08:04.738Z,98807.78
2023-04-15T23:10:32.058Z,98807.78
2023-04-15T23:12:58.575Z,98803.28
2023-04-15T23:15:25.094Z,98802.97
2023-04-15T23:17:52.977Z,98793.38
2023-04-15T23:20:19.687Z,98797.66
2023-04-15T23:22:46.201Z,98805.63
2023-04-15T23:25:12.571Z,98799.50
2023-04-15T23:27:38.959Z,98798.50
2023-04-15T23:30:06.315Z,98798.31
2023-04-15T23:32:32.746Z,98799.97
2023-04-15T23:34:59.490Z,98802.81
2023-04-15T23:37:25.847Z,98800.78
2023-04-15T23:39:52.468Z,98801.47
2023-04-15T23:42:19.163Z,98800.97
2023-04-15T23:44:45.822Z,98794.66
2023-04-15T23:47:12.211Z,98799.00
2023-04-15T23:49:38.585Z,98791.84
2023-04-15T23:52:06.002Z,98797.16
2023-04-15T23:54:32.558Z,98802.47
2023-04-15T23:56:59.056Z,98800.78
2023-04-15T23:59:25.526Z,98800.16
